Time;durP1;ratioP1;P1;durP2;ratioP2;P2;SDS_P1;SDS_P2;PMS_P1;PMS_P2;Temp;Humidity;BMP_temperature;BMP_pressure;BME280_temperature;BME280_humidity;BME280_pressure;Samples;Min_cycle;Max_cycle;Signal;HPM_P1;HPM_P2
2022/08/01 04:01:00;;;;;;;10.07;9.17;;;18.50;99.90;;;;;;5640222;23;20529;-68
2022/08/01 04:03:27;;;;;;;9.53;8.83;;;18.50;99.90;;;;;;4926874;29;20485;-68
2022/08/01 04:05:54;;;;;;;9.93;9.13;;;18.50;99.90;;;;;;4932499;29;20469;-68
2022/08/01 04:08:20;;;;;;;10.10;9.20;;;18.50;99.90;;;;;;4930806;29;20480;-68
2022/08/01 04:10:47;;;;;;;9.97;9.00;;;18.50;99.90;;;;;;4920050;29;20493;-68
2022/08/01 04:13:14;;;;;;;10.30;9.50;;;18.50;99.90;;;;;;4929300;29;20481;-67
2022/08/01 04:15:42;;;;;;;9.73;9.10;;;18.50;99.90;;;;;;4919754;29;20898;-67
2022/08/01 04:18:10;;;;;;;10.00;9.20;;;18.50;99.90;;;;;;4922963;29;20547;-69
2022/08/01 04:20:36;;;;;;;9.57;8.93;;;18.50;99.90;;;;;;4932922;29;20484;-69
2022/08/01 04:23:03;;;;;;;8.87;8.20;;;18.50;99.90;;;;;;4922704;29;20483;-68
2022/08/01 04:25:34;;;;;;;9.93;9.23;;;18.50;99.90;;;;;;4925392;29;20473;-68
2022/08/01 04:28:05;;;;;;;8.97;8.40;;;18.50;99.90;;;;;;4926937;29;20480;-68
2022/08/01 04:30:34;;;;;;;8.57;8.00;;;18.50;99.90;;;;;;4924464;29;20508;-68
2022/08/01 04:33:05;;;;;;;10.20;9.40;;;18.50;99.90;;;;;;4927111;29;20477;-68
2022/08/01 04:35:34;;;;;;;9.70;8.90;;;18.60;99.90;;;;;;4925157;29;20564;-69
2022/08/01 04:38:02;;;;;;;8.47;7.80;;;18.60;99.90;;;;;;4930542;29;20556;-69
2022/08/01 04:40:30;;;;;;;9.33;8.63;;;18.60;99.90;;;;;;4924079;29;20478;-69
2022/08/01 04:42:57;;;;;;;9.17;8.47;;;18.60;99.90;;;;;;4926487;29;20499;-69
2022/08/01 04:45:24;;;;;;;8.13;7.63;;;18.60;99.90;;;;;;4928574;29;20953;-69
2022/08/01 04:47:52;;;;;;;7.40;6.90;;;18.60;99.90;;;;;;4924098;29;20496;-69
2022/08/01 04:50:21;;;;;;;7.17;6.57;;;18.60;99.90;;;;;;4925078;29;20488;-69
2022/08/01 04:52:50;;;;;;;7.90;7.07;;;18.60;99.90;;;;;;4924667;29;20472;-69
2022/08/01 04:55:17;;;;;;;7.47;6.70;;;18.60;99.90;;;;;;4926037;29;20930;-68
2022/08/01 04:57:47;;;;;;;7.30;6.80;;;18.60;99.90;;;;;;4927905;29;20572;-68
2022/08/01 05:00:16;;;;;;;7.60;7.10;;;18.60;99.90;;;;;;4925121;29;20525;-69
2022/08/01 05:02:43;;;;;;;7.40;6.70;;;18.60;99.90;;;;;;4923247;29;20548;-68
2022/08/01 05:05:10;;;;;;;7.70;7.00;;;18.60;99.90;;;;;;4928644;29;21133;-69
2022/08/01 05:07:37;;;;;;;7.23;6.53;;;18.70;99.90;;;;;;4923397;29;20536;-68
2022/08/01 05:10:06;;;;;;;6.90;6.40;;;18.70;99.90;;;;;;4928078;29;20499;-68
2022/08/01 05:12:33;;;;;;;6.47;6.13;;;18.80;99.90;;;;;;4927732;29;20545;-67
2022/08/01 05:15:01;;;;;;;6.67;6.27;;;18.80;99.90;;;;;;4924785;29;20468;-68
2022/08/01 05:17:28;;;;;;;6.23;5.90;;;18.90;99.90;;;;;;4928328;29;20477;-68
2022/08/01 05:19:54;;;;;;;4.63;4.30;;;18.90;99.90;;;;;;4922676;29;20476;-69
2022/08/01 05:22:22;;;;;;;4.43;4.33;;;19.00;99.90;;;;;;4925475;29;20551;-68
2022/08/01 05:24:48;;;;;;;4.47;4.30;;;18.90;99.90;;;;;;4926522;29;20473;-68
2022/08/01 05:27:17;;;;;;;4.80;4.50;;;18.90;99.90;;;;;;4926893;29;20590;-68
2022/08/01 05:29:43;;;;;;;4.43;4.03;;;18.90;99.90;;;;;;4930672;29;20812;-69
2022/08/01 05:32:10;;;;;;;3.70;3.60;;;18.90;99.90;;;;;;4928766;29;20508;-69
2022/08/01 05:34:37;;;;;;;3.73;3.43;;;19.00;99.90;;;;;;4933260;29;20488;-69
2022/08/01 05:37:04;;;;;;;3.53;3.43;;;19.00;99.90;;;;;;4928978;29;20485;-69
2022/08/01 05:39:30;;;;;;;4.63;3.43;;;19.10;99.90;;;;;;4922134;29;20473;-70
2022/08/01 05:41:57;;;;;;;3.43;3.43;;;19.10;99.90;;;;;;4924480;29;20600;-67
2022/08/01 05:44:25;;;;;;;3.20;3.10;;;19.10;99.90;;;;;;4929293;29;20964;-69
2022/08/01 05:46:52;;;;;;;3.43;3.30;;;19.20;99.90;;;;;;4930507;29;20480;-69
2022/08/01 05:49:18;;;;;;;3.10;3.00;;;19.20;99.90;;;;;;4928131;29;20472;-69
2022/08/01 05:51:45;;;;;;;3.00;2.90;;;19.20;99.90;;;;;;4934512;29;21167;-69
2022/08/01 05:54:12;;;;;;;3.30;3.00;;;19.20;99.90;;;;;;4929823;29;20853;-69
2022/08/01 05:56:38;;;;;;;2.63;2.63;;;19.20;99.90;;;;;;4932242;29;20470;-69
2022/08/01 05:59:05;;;;;;;3.07;2.97;;;19.20;99.90;;;;;;4931017;29;20548;-69
2022/08/01 06:01:33;;;;;;;2.80;2.80;;;19.30;99.90;;;;;;4930297;29;20497;-68
2022/08/01 06:04:00;;;;;;;2.97;2.80;;;19.30;99.90;;;;;;4923877;29;20469;-68
2022/08/01 06:06:27;;;;;;;2.90;2.80;;;19.30;99.90;;;;;;4926509;29;20477;-68
2022/08/01 06:08:53;;;;;;;2.97;2.93;;;19.30;99.90;;;;;;4932113;29;20461;-69
2022/08/01 06:11:20;;;;;;;2.57;2.57;;;19.20;99.90;;;;;;4928143;29;20494;-68
2022/08/01 06:13:47;;;;;;;2.67;2.63;;;19.20;99.90;;;;;;4932604;29;20525;-69
2022/08/01 06:16:13;;;;;;;2.27;2.27;;;19.20;99.90;;;;;;4924806;29;20784;-69
2022/08/01 06:18:42;;;;;;;2.40;2.40;;;19.20;99.90;;;;;;4929193;29;20852;-68
2022/08/01 06:21:08;;;;;;;2.90;2.90;;;19.20;99.90;;;;;;4925625;29;20493;-68
2022/08/01 06:23:35;;;;;;;3.50;3.20;;;19.20;99.90;;;;;;4930833;29;20483;-69
2022/08/01 06:26:02;;;;;;;2.87;2.87;;;19.20;99.90;;;;;;4930793;29;20993;-68
2022/08/01 06:28:29;;;;;;;2.63;2.63;;;19.20;99.90;;;;;;4925619;29;20481;-69
2022/08/01 06:30:58;;;;;;;2.10;2.10;;;19.20;99.90;;;;;;4929071;29;20832;-69
2022/08/01 06:33:24;;;;;;;2.20;2.20;;;19.20;99.90;;;;;;4930643;29;20498;-68
2022/08/01 06:35:52;;;;;;;2.10;2.10;;;19.20;99.90;;;;;;4930615;29;20469;-68
2022/08/01 06:38:19;;;;;;;2.73;2.73;;;19.20;99.90;;;;;;4924089;29;20473;-70
2022/08/01 06:40:46;;;;;;;2.20;2.20;;;19.10;99.90;;;;;;4924285;29;20547;-70
2022/08/01 06:43:13;;;;;;;2.87;2.87;;;19.00;99.90;;;;;;4927195;29;20539;-69
2022/08/01 06:45:40;;;;;;;3.30;3.30;;;19.00;99.90;;;;;;4936047;29;20469;-71
2022/08/01 06:48:07;;;;;;;3.60;3.50;;;18.90;99.90;;;;;;4932566;29;20479;-70
2022/08/01 06:50:35;;;;;;;3.90;3.80;;;18.90;99.90;;;;;;4928426;29;20911;-70
2022/08/01 06:53:03;;;;;;;4.40;4.30;;;18.90;99.90;;;;;;4934375;29;20548;-69
2022/08/01 06:55:30;;;;;;;4.53;4.33;;;19.00;99.90;;;;;;4930516;29;20476;-69
2022/08/01 06:57:57;;;;;;;4.50;4.40;;;19.00;99.90;;;;;;4927497;29;20472;-69
2022/08/01 07:00:25;;;;;;;5.57;5.37;;;19.10;99.90;;;;;;4931578;29;20484;-69
2022/08/01 07:02:52;;;;;;;5.50;5.30;;;19.20;99.90;;;;;;4925416;29;20462;-69
2022/08/01 07:05:19;;;;;;;5.33;5.13;;;19.30;99.90;;;;;;4917843;29;20544;-69
2022/08/01 07:07:46;;;;;;;5.77;5.57;;;19.30;99.90;;;;;;4926285;29;20933;-68
2022/08/01 07:10:14;;;;;;;6.60;6.10;;;19.30;99.90;;;;;;4926349;29;20481;-69
2022/08/01 07:12:41;;;;;;;6.33;6.03;;;19.30;99.90;;;;;;4921229;29;20497;-69
2022/08/01 07:15:09;;;;;;;6.10;5.80;;;19.30;99.90;;;;;;4927637;29;20489;-69
2022/08/01 07:17:38;;;;;;;7.13;6.73;;;19.20;99.90;;;;;;4925529;29;20477;-69
2022/08/01 07:20:07;;;;;;;7.47;6.97;;;19.30;99.90;;;;;;4927313;29;20477;-69
2022/08/01 07:22:34;;;;;;;6.60;6.30;;;19.30;99.90;;;;;;4927772;29;20492;-69
2022/08/01 07:25:00;;;;;;;6.23;5.93;;;19.30;99.90;;;;;;4918880;29;20534;-69
2022/08/01 07:27:28;;;;;;;5.80;5.60;;;19.40;99.90;;;;;;4925403;29;20505;-69
2022/08/01 07:29:55;;;;;;;6.27;5.87;;;19.40;99.90;;;;;;4928214;29;20576;-69
2022/08/01 07:32:22;;;;;;;6.13;5.83;;;19.40;99.90;;;;;;4928063;29;20496;-69
2022/08/01 07:34:48;;;;;;;6.37;6.17;;;19.40;99.90;;;;;;4925380;29;20481;-69
2022/08/01 07:37:15;;;;;;;6.93;6.60;;;19.40;99.90;;;;;;4929155;29;20537;-69
2022/08/01 07:39:42;;;;;;;7.33;7.03;;;19.40;99.90;;;;;;4931817;29;20474;-68
2022/08/01 07:42:08;;;;;;;6.20;5.90;;;19.40;99.90;;;;;;4928697;29;20487;-69
2022/08/01 07:44:37;;;;;;;6.23;6.03;;;19.40;99.90;;;;;;4927303;29;20472;-69
2022/08/01 07:47:05;;;;;;;6.13;5.83;;;19.30;99.90;;;;;;4929813;29;20488;-69
2022/08/01 07:49:32;;;;;;;6.90;6.60;;;19.30;99.90;;;;;;4924406;29;20954;-70
2022/08/01 07:51:58;;;;;;;6.10;5.90;;;19.40;99.90;;;;;;4929595;29;20532;-68
2022/08/01 07:54:27;;;;;;;6.47;6.17;;;19.40;99.90;;;;;;4924935;29;21045;-68
2022/08/01 07:56:54;;;;;;;6.40;6.20;;;19.50;99.90;;;;;;4929443;29;20476;-69
2022/08/01 07:59:22;;;;;;;5.00;4.90;;;19.70;99.90;;;;;;4924129;29;20955;-69
2022/08/01 08:01:51;;;;;;;4.30;4.10;;;19.80;99.90;;;;;;4931018;29;21092;-70
2022/08/01 08:04:18;;;;;;;5.20;5.03;;;19.90;99.90;;;;;;4925138;29;22312;-69
2022/08/01 08:06:47;;;;;;;4.67;4.47;;;19.90;99.90;;;;;;4926614;29;20532;-70
2022/08/01 08:09:14;;;;;;;6.60;6.23;;;19.80;99.90;;;;;;4927775;29;20474;-69
2022/08/01 08:11:42;;;;;;;4.77;4.67;;;19.80;99.90;;;;;;4933841;29;20544;-67
2022/08/01 08:14:09;;;;;;;5.13;4.93;;;19.70;99.90;;;;;;4920303;29;20501;-69
2022/08/01 08:16:35;;;;;;;5.67;5.30;;;19.60;99.90;;;;;;4930395;29;20805;-69
2022/08/01 08:19:03;;;;;;;5.97;5.70;;;19.60;99.90;;;;;;4928135;29;20619;-70
2022/08/01 08:21:30;;;;;;;6.43;5.93;;;19.70;99.90;;;;;;4932001;29;20505;-70
2022/08/01 08:26:41;;;;;;;5.03;4.90;;;19.90;99.90;;;;;;4925638;29;20465;-68
2022/08/01 08:29:08;;;;;;;4.90;4.80;;;20.20;99.90;;;;;;4933168;29;20468;-70
2022/08/01 08:31:35;;;;;;;5.23;5.03;;;20.30;99.90;;;;;;4919113;29;20858;-69
2022/08/01 08:34:03;;;;;;;5.93;5.60;;;20.30;99.90;;;;;;4929134;29;20481;-67
2022/08/01 08:36:30;;;;;;;5.40;5.10;;;20.30;99.90;;;;;;4924670;29;20471;-68
2022/08/01 08:38:56;;;;;;;5.80;5.60;;;20.30;99.90;;;;;;4929283;29;20467;-69
2022/08/01 08:41:23;;;;;;;5.23;4.93;;;20.30;99.90;;;;;;4929192;29;20549;-70
2022/08/01 08:43:50;;;;;;;5.57;5.27;;;20.30;99.90;;;;;;4933194;29;20570;-70
2022/08/01 08:46:17;;;;;;;5.80;5.47;;;20.40;99.90;;;;;;4925328;29;20481;-69
2022/08/01 08:48:44;;;;;;;5.27;4.77;;;20.50;99.90;;;;;;4917233;29;20519;-68
2022/08/01 08:51:13;;;;;;;10.47;6.53;;;20.40;99.90;;;;;;4921461;29;20498;-70
2022/08/01 08:53:43;;;;;;;7.67;4.73;;;20.30;99.90;;;;;;4924130;29;20479;-70
2022/08/01 08:56:12;;;;;;;5.50;5.00;;;20.30;99.90;;;;;;4927579;29;20479;-69
2022/08/01 08:58:39;;;;;;;5.87;5.50;;;20.20;99.90;;;;;;4921776;29;20485;-70
2022/08/01 09:01:06;;;;;;;5.80;5.00;;;20.30;99.90;;;;;;4933297;29;20884;-69
2022/08/01 09:03:33;;;;;;;5.67;4.60;;;20.30;99.90;;;;;;4918659;29;20547;-69
2022/08/01 09:06:00;;;;;;;5.93;5.53;;;20.30;99.90;;;;;;4926128;29;20480;-68
2022/08/01 09:08:28;;;;;;;6.10;5.50;;;20.30;99.90;;;;;;4918089;29;20831;-67
2022/08/01 09:10:55;;;;;;;6.63;5.90;;;20.40;99.90;;;;;;4923101;29;20487;-69
2022/08/01 09:13:21;;;;;;;6.60;4.80;;;20.50;99.90;;;;;;4931661;29;20471;-69
2022/08/01 09:15:50;;;;;;;6.20;5.70;;;20.70;99.90;;;;;;4932624;29;20463;-70
2022/08/01 09:18:28;;;;;;;6.13;5.40;;;20.70;99.90;;;;;;4922526;29;20487;-70
2022/08/01 09:21:12;;;;;;;5.23;4.73;;;20.80;99.90;;;;;;4918331;29;20573;-69
2022/08/01 09:23:43;;;;;;;5.13;4.70;;;21.00;99.90;;;;;;4930180;29;20471;-69
2022/08/01 09:26:10;;;;;;;4.60;4.30;;;21.10;99.90;;;;;;4929030;29;20521;-70
2022/08/01 09:28:37;;;;;;;5.80;5.30;;;21.10;99.90;;;;;;4931922;29;20463;-69
2022/08/01 09:31:08;;;;;;;5.13;4.87;;;21.10;99.90;;;;;;4927237;29;20534;-70
2022/08/01 09:33:52;;;;;;;5.17;4.53;;;21.20;99.90;;;;;;4931769;29;21000;-67
2022/08/01 09:36:20;;;;;;;7.03;6.30;;;21.20;99.90;;;;;;4929674;29;20523;-68
2022/08/01 09:38:49;;;;;;;9.07;5.13;;;21.20;99.90;;;;;;4919810;29;20479;-70
2022/08/01 09:41:15;;;;;;;6.90;4.50;;;21.30;99.90;;;;;;4927595;29;20495;-70
2022/08/01 09:43:49;;;;;;;5.73;4.47;;;21.40;99.90;;;;;;4929982;29;20468;-70
2022/08/01 09:46:16;;;;;;;4.77;4.47;;;21.50;99.90;;;;;;4929824;29;20839;-69
2022/08/01 09:48:57;;;;;;;4.93;4.30;;;21.60;99.90;;;;;;4928244;29;20542;-70
2022/08/01 09:51:34;;;;;;;8.10;4.20;;;21.60;99.90;;;;;;4925019;29;20561;-69
2022/08/01 09:54:05;;;;;;;3.60;3.33;;;21.70;99.90;;;;;;4925815;29;20544;-69
2022/08/01 09:56:38;;;;;;;3.30;3.10;;;21.70;99.90;;;;;;4924861;29;20871;-69
2022/08/01 09:59:06;;;;;;;2.90;2.63;;;21.60;99.90;;;;;;4930078;29;20468;-67
2022/08/01 10:01:47;;;;;;;3.43;3.00;;;21.50;99.90;;;;;;4931340;29;20519;-70
2022/08/01 10:04:16;;;;;;;3.60;3.30;;;21.60;99.90;;;;;;4928109;29;20948;-70
2022/08/01 10:06:45;;;;;;;3.47;3.30;;;21.80;99.90;;;;;;4912988;29;20465;-68
2022/08/01 10:09:14;;;;;;;2.77;2.57;;;21.90;99.90;;;;;;4924450;29;20476;-69
2022/08/01 10:11:42;;;;;;;3.30;2.67;;;21.90;99.90;;;;;;4922924;29;20507;-68
2022/08/01 10:14:12;;;;;;;7.50;2.93;;;22.10;99.90;;;;;;4928923;29;20491;-69
2022/08/01 10:16:40;;;;;;;3.57;2.50;;;22.30;99.90;;;;;;4926582;29;20474;-69
2022/08/01 10:19:08;;;;;;;2.57;2.27;;;22.40;99.90;;;;;;4934181;29;20505;-69
2022/08/01 10:21:37;;;;;;;4.07;2.30;;;22.30;99.90;;;;;;4932814;29;20524;-70
2022/08/01 10:24:06;;;;;;;4.53;2.40;;;22.20;99.90;;;;;;4935505;29;20465;-69
2022/08/01 10:26:35;;;;;;;2.30;2.10;;;22.10;99.90;;;;;;4927471;29;20481;-68
2022/08/01 10:29:03;;;;;;;3.60;2.60;;;22.00;99.90;;;;;;4935345;29;20471;-70
2022/08/01 10:31:32;;;;;;;2.57;2.47;;;22.00;99.90;;;;;;4924113;29;20497;-69
2022/08/01 10:34:00;;;;;;;2.00;1.90;;;22.20;99.90;;;;;;4921508;29;20480;-69
2022/08/01 10:36:28;;;;;;;3.93;2.30;;;22.30;99.90;;;;;;4919186;29;20926;-70
2022/08/01 10:38:55;;;;;;;3.17;2.97;;;22.30;99.90;;;;;;4923473;29;20483;-70
2022/08/01 10:41:22;;;;;;;3.33;2.90;;;22.40;99.90;;;;;;4930957;29;20496;-70
2022/08/01 10:43:51;;;;;;;3.97;3.60;;;22.40;99.90;;;;;;4929130;29;20488;-69
2022/08/01 10:46:19;;;;;;;3.87;3.57;;;22.20;99.90;;;;;;4934370;29;20535;-69
2022/08/01 10:48:51;;;;;;;3.43;3.23;;;22.00;99.90;;;;;;4931292;29;20476;-70
2022/08/01 10:51:20;;;;;;;6.87;3.80;;;22.00;99.90;;;;;;4935748;29;20827;-70
2022/08/01 10:53:48;;;;;;;4.00;3.67;;;22.30;99.90;;;;;;4922182;29;20500;-70
2022/08/01 10:56:16;;;;;;;7.10;4.10;;;22.20;99.90;;;;;;4931028;29;20481;-69
2022/08/01 10:58:44;;;;;;;5.53;4.37;;;22.50;99.90;;;;;;4930210;29;20481;-68
2022/08/01 11:01:21;;;;;;;12.37;4.70;;;22.70;99.90;;;;;;4924996;29;21473;-70
2022/08/01 11:04:07;;;;;;;4.60;4.37;;;22.50;99.90;;;;;;4926852;29;20583;-70
2022/08/01 11:06:51;;;;;;;6.40;4.67;;;22.60;99.90;;;;;;4931378;29;20480;-69
2022/08/01 11:09:25;;;;;;;6.07;4.10;;;22.70;99.90;;;;;;4930149;29;20469;-69
2022/08/01 11:12:05;;;;;;;9.03;5.10;;;22.70;99.90;;;;;;4930859;29;20681;-69
2022/08/01 11:14:32;;;;;;;4.73;4.43;;;22.60;99.90;;;;;;4920863;29;20481;-70
2022/08/01 11:17:34;;;;;;;4.87;4.37;;;22.50;99.90;;;;;;4924297;29;21004;-70
2022/08/01 11:20:09;;;;;;;4.43;3.90;;;22.60;99.90;;;;;;4923746;29;20467;-70
2022/08/01 11:23:13;;;;;;;5.10;4.30;;;22.60;99.90;;;;;;4930534;29;20491;-70
2022/08/01 11:26:07;;;;;;;4.20;3.90;;;22.50;99.90;;;;;;4934702;29;20486;-70
2022/08/01 11:28:34;;;;;;;4.07;3.77;;;22.50;99.90;;;;;;4930577;29;20488;-68
2022/08/01 11:31:29;;;;;;;4.40;3.40;;;22.50;99.90;;;;;;4921127;29;20561;-69
2022/08/01 11:33:57;;;;;;;3.53;3.27;;;22.50;99.90;;;;;;4933326;29;20510;-70
2022/08/01 11:36:24;;;;;;;2.77;2.60;;;22.50;99.90;;;;;;4928059;29;20538;-68
2022/08/01 11:39:19;;;;;;;4.63;3.10;;;22.40;99.90;;;;;;4931666;29;20948;-70
2022/08/01 11:41:47;;;;;;;5.97;3.10;;;22.40;99.90;;;;;;4927323;29;20586;-70
2022/08/01 11:44:17;;;;;;;3.67;2.70;;;22.40;99.90;;;;;;4926651;29;20467;-71
2022/08/01 11:47:04;;;;;;;3.90;2.80;;;22.50;99.90;;;;;;4924259;29;20507;-70
2022/08/01 11:49:35;;;;;;;2.60;2.50;;;22.50;99.90;;;;;;4922958;29;20837;-69
2022/08/01 11:52:06;;;;;;;3.10;2.50;;;22.60;99.90;;;;;;4923579;29;20517;-70
2022/08/01 11:54:34;;;;;;;2.33;2.23;;;22.70;99.90;;;;;;4926208;29;20477;-70
2022/08/01 11:57:04;;;;;;;3.57;2.00;;;22.80;99.90;;;;;;4927186;29;20863;-70
2022/08/01 11:59:37;;;;;;;3.13;2.13;;;22.70;99.90;;;;;;4929759;29;20476;-69
2022/08/01 12:02:04;;;;;;;2.20;2.20;;;22.60;99.90;;;;;;4916444;29;20504;-70
2022/08/01 12:04:55;;;;;;;3.40;2.00;;;22.50;99.90;;;;;;4924548;29;20587;-70
2022/08/01 12:07:22;;;;;;;7.33;2.43;;;22.60;99.90;;;;;;4927922;29;20469;-70
2022/08/01 12:09:56;;;;;;;3.50;2.17;;;22.70;99.90;;;;;;4923276;29;20463;-68
2022/08/01 12:12:23;;;;;;;2.10;2.00;;;22.80;99.90;;;;;;4926435;29;20496;-70
2022/08/01 12:14:55;;;;;;;3.57;2.10;;;22.80;99.90;;;;;;4929475;29;20641;-70
2022/08/01 12:17:28;;;;;;;3.93;2.03;;;22.80;99.90;;;;;;4926825;29;20475;-69
2022/08/01 12:19:56;;;;;;;2.13;1.77;;;22.90;99.90;;;;;;4927047;29;20483;-70
2022/08/01 12:22:24;;;;;;;4.90;1.90;;;23.10;99.90;;;;;;4927469;29;20564;-70
2022/08/01 12:24:51;;;;;;;2.13;1.70;;;23.00;99.90;;;;;;4928598;29;20547;-68
2022/08/01 12:27:26;;;;;;;1.97;1.73;;;23.00;99.90;;;;;;4924476;29;20970;-69
2022/08/01 12:29:53;;;;;;;9.53;2.63;;;23.00;99.90;;;;;;4927720;29;21125;-70
2022/08/01 12:32:25;;;;;;;2.17;1.77;;;23.00;99.90;;;;;;4926852;29;20556;-70
2022/08/01 12:34:52;;;;;;;3.00;2.33;;;22.90;99.90;;;;;;4917669;29;20475;-69
2022/08/01 12:37:21;;;;;;;1.70;1.60;;;23.00;99.90;;;;;;4916597;29;20476;-70
2022/08/01 12:39:48;;;;;;;3.80;2.10;;;22.90;99.90;;;;;;4922021;29;20477;-71
2022/08/01 12:42:15;;;;;;;1.50;1.50;;;22.90;99.90;;;;;;4924735;29;20871;-70
2022/08/01 12:44:46;;;;;;;2.83;2.23;;;22.90;99.90;;;;;;4923733;29;20539;-70
2022/08/01 12:47:14;;;;;;;3.90;2.53;;;23.00;99.90;;;;;;4929729;29;20635;-68
2022/08/01 12:49:44;;;;;;;5.63;2.57;;;23.10;99.90;;;;;;4914098;29;20210;-68
2022/08/01 12:52:11;;;;;;;1.80;1.63;;;23.10;99.90;;;;;;4929332;29;20484;-67
2022/08/01 12:55:09;;;;;;;2.20;2.00;;;23.10;99.90;;;;;;4932249;29;20460;-69
2022/08/01 12:57:36;;;;;;;2.57;1.73;;;23.10;99.90;;;;;;4931704;29;20555;-69
2022/08/01 13:00:08;;;;;;;1.67;1.67;;;23.00;99.90;;;;;;4928320;29;20958;-68
2022/08/01 13:02:35;;;;;;;2.40;2.10;;;23.10;99.90;;;;;;4931206;29;20495;-67
2022/08/01 13:05:03;;;;;;;1.93;1.37;;;23.10;99.90;;;;;;4915162;29;20584;-69
2022/08/01 13:07:43;;;;;;;2.37;2.20;;;23.20;99.90;;;;;;4914036;29;20477;-69
2022/08/01 13:10:12;;;;;;;6.70;2.07;;;23.10;99.90;;;;;;4913752;29;20880;-69
2022/08/01 13:12:40;;;;;;;4.93;1.83;;;23.20;99.90;;;;;;4932068;29;20977;-68
2022/08/01 13:15:23;;;;;;;2.77;1.60;;;23.20;99.90;;;;;;4914152;29;20947;-68
2022/08/01 13:17:50;;;;;;;1.47;1.47;;;23.10;99.90;;;;;;4914287;29;20469;-68
2022/08/01 13:20:28;;;;;;;1.60;1.50;;;23.20;99.90;;;;;;4931344;29;20469;-69
2022/08/01 13:22:55;;;;;;;4.20;2.00;;;23.30;99.90;;;;;;4931706;29;20471;-68
2022/08/01 13:25:23;;;;;;;2.20;2.10;;;23.20;99.90;;;;;;4914505;29;20965;-69
2022/08/01 13:28:10;;;;;;;3.73;1.50;;;23.20;99.90;;;;;;4914121;29;20472;-69
2022/08/01 13:30:37;;;;;;;1.27;1.27;;;23.00;99.90;;;;;;4926496;29;20495;-68
2022/08/01 13:33:04;;;;;;;2.97;1.63;;;23.00;99.90;;;;;;4931624;29;20488;-69
2022/08/01 13:35:31;;;;;;;1.53;1.43;;;23.10;99.90;;;;;;4933218;29;20475;-69
2022/08/01 13:37:58;;;;;;;1.90;1.80;;;23.10;99.90;;;;;;4932156;29;20984;-69
2022/08/01 13:40:27;;;;;;;2.10;1.73;;;23.10;99.90;;;;;;4915561;29;20513;-69
2022/08/01 13:42:56;;;;;;;3.77;1.90;;;23.20;99.90;;;;;;4932737;29;20536;-69
2022/08/01 13:45:23;;;;;;;1.40;1.40;;;23.20;99.90;;;;;;4916894;29;20476;-68
2022/08/01 13:47:49;;;;;;;1.90;1.40;;;23.30;99.90;;;;;;4925798;29;20476;-70
2022/08/01 13:50:16;;;;;;;2.40;1.53;;;23.20;99.90;;;;;;4926958;29;20472;-69
2022/08/01 13:52:43;;;;;;;3.13;1.30;;;23.20;99.90;;;;;;4933403;29;20933;-69
2022/08/01 13:55:10;;;;;;;1.30;1.30;;;23.30;99.90;;;;;;4935998;29;20476;-70
2022/08/01 13:57:38;;;;;;;1.67;1.57;;;23.40;99.90;;;;;;4936339;29;20468;-70
2022/08/01 14:00:07;;;;;;;2.13;1.40;;;23.40;99.90;;;;;;4923011;29;20544;-70
2022/08/01 14:02:34;;;;;;;1.37;1.20;;;23.40;99.90;;;;;;4934647;29;20491;-69
2022/08/01 14:05:01;;;;;;;2.40;1.20;;;23.30;99.90;;;;;;4933906;29;20472;-68
2022/08/01 14:07:28;;;;;;;2.23;1.30;;;23.30;99.90;;;;;;4935645;29;20475;-69
2022/08/01 14:09:55;;;;;;;2.77;1.40;;;23.30;99.90;;;;;;4918271;29;20568;-68
2022/08/01 14:12:21;;;;;;;1.80;1.30;;;23.40;99.90;;;;;;4933288;29;20495;-69
2022/08/01 14:14:49;;;;;;;3.90;1.50;;;23.30;99.90;;;;;;4935509;29;20491;-68
2022/08/01 14:17:16;;;;;;;2.57;1.47;;;23.30;99.90;;;;;;4935627;29;20477;-68
2022/08/01 14:19:43;;;;;;;4.73;1.90;;;23.10;99.90;;;;;;4927389;29;20535;-69
2022/08/01 14:22:09;;;;;;;2.00;1.70;;;23.00;99.90;;;;;;4927197;29;20496;-68
2022/08/01 14:24:36;;;;;;;1.50;1.20;;;22.90;99.90;;;;;;4927638;29;20471;-69
2022/08/01 14:27:03;;;;;;;7.90;1.57;;;23.00;99.90;;;;;;4923013;29;20479;-69
2022/08/01 14:29:30;;;;;;;4.13;2.50;;;22.90;99.90;;;;;;4934629;29;20490;-70
2022/08/01 14:31:58;;;;;;;3.13;1.90;;;23.00;99.90;;;;;;4928061;29;20499;-70
2022/08/01 14:34:24;;;;;;;4.47;1.50;;;23.10;99.90;;;;;;4925550;29;20487;-70
2022/08/01 14:36:53;;;;;;;1.70;1.10;;;23.10;99.90;;;;;;4921309;29;20471;-69
2022/08/01 14:39:19;;;;;;;2.37;1.40;;;22.90;99.90;;;;;;4933229;29;20468;-71
2022/08/01 14:41:46;;;;;;;1.30;1.23;;;22.90;99.90;;;;;;4928862;29;20479;-70
2022/08/01 14:44:13;;;;;;;3.63;2.57;;;23.00;99.90;;;;;;4921297;29;20476;-69
2022/08/01 14:46:41;;;;;;;2.30;2.13;;;23.00;99.90;;;;;;4927652;29;21075;-70
2022/08/01 14:49:09;;;;;;;1.90;1.80;;;23.00;99.90;;;;;;4927628;29;20508;-70
2022/08/01 14:51:37;;;;;;;4.67;1.87;;;22.90;99.90;;;;;;4928661;29;20507;-69
2022/08/01 14:54:04;;;;;;;5.30;1.87;;;23.00;99.90;;;;;;4926800;29;20635;-71
2022/08/01 14:56:31;;;;;;;5.40;2.10;;;23.10;99.90;;;;;;4926689;29;20628;-70
2022/08/01 14:58:58;;;;;;;1.43;1.30;;;23.00;99.90;;;;;;4931386;29;20479;-71
2022/08/01 15:01:25;;;;;;;1.77;1.67;;;23.00;99.90;;;;;;4929777;29;20566;-70
2022/08/01 15:03:52;;;;;;;2.67;1.63;;;22.90;99.90;;;;;;4930364;29;20472;-71
2022/08/01 15:06:20;;;;;;;1.90;1.80;;;22.90;99.90;;;;;;4926864;29;20481;-70
2022/08/01 15:08:46;;;;;;;2.10;1.53;;;22.90;99.90;;;;;;4922984;29;20571;-70
2022/08/01 15:11:13;;;;;;;4.47;1.53;;;22.90;99.90;;;;;;4922537;29;20571;-70
2022/08/01 15:13:40;;;;;;;2.80;1.60;;;22.90;99.90;;;;;;4918905;29;22391;-70
2022/08/01 15:16:07;;;;;;;2.13;1.60;;;22.90;99.90;;;;;;4927538;29;20838;-70
2022/08/01 15:18:34;;;;;;;6.20;2.03;;;22.90;99.90;;;;;;4921686;29;21012;-69
2022/08/01 15:21:00;;;;;;;4.10;1.57;;;22.90;99.90;;;;;;4925719;29;20495;-69
2022/08/01 15:23:29;;;;;;;1.80;1.43;;;22.80;99.90;;;;;;4923323;29;20464;-70
2022/08/01 15:25:55;;;;;;;3.23;2.07;;;22.60;99.90;;;;;;4921090;29;20539;-69
2022/08/01 15:28:22;;;;;;;1.50;1.50;;;22.50;99.90;;;;;;4922926;29;20480;-69
2022/08/01 15:30:49;;;;;;;3.30;2.13;;;22.60;99.90;;;;;;4923200;29;20491;-70
2022/08/01 15:33:16;;;;;;;1.70;1.60;;;22.60;99.90;;;;;;4922488;29;21011;-70
2022/08/01 15:35:43;;;;;;;2.70;1.50;;;22.50;99.90;;;;;;4925653;29;20476;-70
2022/08/01 15:38:09;;;;;;;1.47;1.47;;;22.50;99.90;;;;;;4925128;29;20972;-70
2022/08/01 15:40:38;;;;;;;1.47;1.20;;;22.50;99.90;;;;;;4925781;29;20526;-70
2022/08/01 15:43:04;;;;;;;1.73;1.73;;;22.50;99.90;;;;;;4920097;29;20476;-69
2022/08/01 15:45:31;;;;;;;6.13;2.33;;;22.50;99.90;;;;;;4920138;29;20500;-70
2022/08/01 15:47:58;;;;;;;3.17;1.40;;;22.60;99.90;;;;;;4920037;29;20478;-70
2022/08/01 15:50:25;;;;;;;3.57;2.40;;;22.60;99.90;;;;;;4917971;29;20512;-68
2022/08/01 15:52:51;;;;;;;2.30;1.60;;;22.70;99.90;;;;;;4926943;29;20583;-70
2022/08/01 15:55:18;;;;;;;2.63;1.97;;;22.70;99.90;;;;;;4932848;29;20499;-69
2022/08/01 15:57:46;;;;;;;2.87;1.87;;;22.70;99.90;;;;;;4927390;29;20856;-70
2022/08/01 16:00:14;;;;;;;4.93;2.43;;;22.70;99.90;;;;;;4922318;29;20528;-69
2022/08/01 16:02:41;;;;;;;1.57;1.47;;;22.80;99.90;;;;;;4925228;29;20524;-70
2022/08/01 16:05:09;;;;;;;1.83;1.73;;;22.70;99.90;;;;;;4929897;29;20472;-69
2022/08/01 16:07:36;;;;;;;3.10;1.60;;;22.60;99.90;;;;;;4919867;29;20895;-70
2022/08/01 16:10:02;;;;;;;2.77;1.40;;;22.60;99.90;;;;;;4921000;29;20481;-70
2022/08/01 16:12:29;;;;;;;1.70;1.60;;;22.50;99.90;;;;;;4925058;29;20526;-70
2022/08/01 16:14:57;;;;;;;3.83;2.10;;;22.50;99.90;;;;;;4925882;29;20489;-69
2022/08/01 16:17:24;;;;;;;5.43;1.67;;;22.40;99.90;;;;;;4925677;29;20467;-71
2022/08/01 16:19:51;;;;;;;1.50;1.30;;;22.40;99.90;;;;;;4925360;29;20481;-69
2022/08/01 16:22:18;;;;;;;4.17;2.03;;;22.30;99.90;;;;;;4916475;29;20526;-68
2022/08/01 16:24:44;;;;;;;2.20;1.97;;;22.30;99.90;;;;;;4927387;29;20459;-70
2022/08/01 16:27:11;;;;;;;2.87;1.50;;;22.30;99.90;;;;;;4918224;29;20467;-69
2022/08/01 16:29:38;;;;;;;2.53;1.80;;;22.20;99.90;;;;;;4926681;29;20480;-69
2022/08/01 16:32:06;;;;;;;3.53;1.70;;;22.00;99.90;;;;;;4924119;29;21034;-68
2022/08/01 16:34:33;;;;;;;2.70;2.10;;;21.90;99.90;;;;;;4926156;29;20482;-70
2022/08/01 16:37:00;;;;;;;2.23;1.63;;;21.80;99.90;;;;;;4927183;29;20505;-69
2022/08/01 16:39:26;;;;;;;1.70;1.60;;;21.70;99.90;;;;;;4926185;29;20474;-69
2022/08/01 16:41:53;;;;;;;2.20;1.30;;;21.50;99.90;;;;;;4923988;29;20498;-69
2022/08/01 16:44:20;;;;;;;1.93;1.70;;;21.40;99.90;;;;;;4928012;29;20544;-69
2022/08/01 16:46:46;;;;;;;4.00;1.87;;;21.40;99.90;;;;;;4928787;29;20474;-69
2022/08/01 16:49:14;;;;;;;3.60;1.87;;;21.40;99.90;;;;;;4925505;29;20470;-69
2022/08/01 16:51:41;;;;;;;1.50;1.40;;;21.20;99.90;;;;;;4923305;29;20509;-67
2022/08/01 16:54:08;;;;;;;4.07;2.10;;;21.10;99.90;;;;;;4923497;29;20492;-69
2022/08/01 16:56:35;;;;;;;2.77;1.57;;;21.00;99.90;;;;;;4928034;29;20485;-68